Terminal Aerodrome Forecast
Issued by NWS

Home | Current Version | Previous Version | Text Only | Print | Product List | Glossary On
Versions: 1 2 3 4 5 6 7 8 9 10 11 12 13 14 15
007
FTUS42 KTBW 111120
TAFPIE
TAF
KPIE 111120Z 1112/1212 VRB03KT P6SM SKC
     FM111400 05006KT P6SM FEW250
     FM111800 26009KT P6SM FEW250
     FM120000 VRB04KT P6SM SKC=

USA.gov is the U.S. government's official web portal to all federal, state and local government web resources and services.